• Join FlightAware (Why Join?)
  • Login
  • US Flag 
10:27AM EDT


 

Airport Tracker/Info


-or-


 

Live Flight TrackerFlight Track Log ✈ LOF3379 ✈ 21-Jul-2013 ✈ KDAY - KORD

Flight Track Log - Related Links

Times and Time Zones

All times are in EDT time to prevent confusion due to time zone crossing. See the LOF3379 flight status page for this flight to view local times or setup timezone preferences in your user account.

Time Position Orientation Groundspeed Altitude Reporting Facility
EDT Latitude Longitude Course Direction KTS MPH feet Rate Location/Type
10:08AM 39.8975 -84.2444 328° Northwest 152 175 1,500  Level Indianapolis Center
10:09AM 39.8856 -84.3161 258° West 206 237 3,400 1,740 Climbing Indianapolis Center
10:10AM 39.9192 -84.4069 296° West 260 299 5,800 1,920 Climbing Indianapolis Center
10:11AM 40.2041 -84.4874 323° Northwest  Level FlightAware Approximate
10:11AM 39.9811 -84.4539 330° Northwest 257 296 8,000  Level Indianapolis Center
10:12AM 40.2808 -84.5561 326° Northwest  Level FlightAware Approximate
10:12AM 40.0469 -84.5025 331° Northwest 263 303 10,000  Level Indianapolis Center
10:13AM 40.3582 -84.6235 328° Northwest  Level FlightAware Approximate
10:13AM 40.1203 -84.5542 332° Northwest 283 326 11,000  Level Indianapolis Center
10:14AM 40.1989 -84.6114 331° Northwest 312 359 12,800 1,620 Climbing Indianapolis Center
10:15AM 40.2756 -84.6672 331° Northwest 312 359 14,400 1,560 Climbing Indianapolis Center
10:16AM 40.3650 -84.7319 331° Northwest 314 361 16,100 1,500 Climbing Indianapolis Center
10:17AM 40.4411 -84.7875 331° Northwest 310 357 17,600 1,320 Climbing Indianapolis Center
10:18AM 40.5156 -84.8433 330° Northwest 307 353 18,900 1,140 Climbing Indianapolis Center
10:19AM 40.5889 -84.8975 331° Northwest 301 346 20,000 660 Climbing Indianapolis Center
10:20AM 40.6336 -84.9303 331° Northwest 308 354 20,000  Level Chicago Center
10:21AM 40.7028 -85.0169 316° Northwest 342 394 20,000  Level Chicago Center
10:22AM 40.7625 -85.1200 307° West 354 407 20,000  Level Chicago Center
10:23AM 40.8244 -85.2264 308° West 364 419 20,000  Level Chicago Center
10:24AM 40.8875 -85.3353 307° West 371 427 20,000  Level Chicago Center
10:25AM 40.9503 -85.4469 307° West 374 430 20,000  Level Chicago Center
10:26AM 41.0133 -85.5583 307° West 376 433 20,000  Level Chicago Center
10:27AM 41.0803 -85.6975 303° West 373 429 20,000  Level Chicago Center
10:28AM 41.1222 -85.8247 294° West 375 432 20,000  Level Chicago Center
10:29AM 41.1633 -85.9511 293° West 374 430 20,000  Level Chicago Center
10:30AM 41.2058 -86.0786 294° West 376 433 20,000  Level Chicago Center
10:31AM 41.2461 -86.2042 293° West 373 429 20,000  Level Chicago Center
10:32AM 41.2861 -86.3300 293° West 370 426 20,000  Level Chicago Center
10:33AM 41.3292 -86.4564 294° West 373 429 20,000 -720 Level Chicago Center
10:34AM 41.3781 -86.6125 293° West 378 435 18,600 -1,380 Descending Chicago Center
10:35AM 41.4200 -86.7386 294° West 386 444 17,200 -1,440 Descending Chicago Center
10:36AM 41.4608 -86.8614 294° West 372 428 15,700 -1,500 Descending Chicago Center
10:37AM 41.4989 -86.9850 292° West 366 421 14,200 -1,680 Descending Chicago Center
10:38AM 41.5472 -87.1350 293° West 368 423 12,300 -1,080 Descending Chicago Center
10:39AM 41.5861 -87.2528 294° West 358 412 12,000 -540 Descending Chicago Center
10:41AM 41.6464 -87.3494 310° West 343 395 11,300 -960 Descending Chicago Center
10:42AM 41.7008 -87.4408 309° West 321 369 10,100 -1,320 Descending Chicago Center
10:43AM 41.7478 -87.5175 309° West 274 315 8,600 -1,500 Descending Chicago Center
10:44AM 41.8017 -87.6086 308° West 265 305 7,000 -780 Descending Chicago Center
10:45AM 41.8467 -87.6822 309° West 260 299 7,000  Level Chicago Center
10:46AM 41.8967 -87.7258 327° Northwest 246 283 7,000 -480 Level Chicago Center
10:47AM 41.9600 -87.7269 359° North 232 267 6,100 -1,560 Descending Chicago Center
10:48AM 42.0228 -87.7228 North 228 262 3,800 -2,280 Descending Chicago Center